createdAt,value
2023-03-16T00:00:58.440Z,1.82
2023-03-16T00:03:28.171Z,2.25
2023-03-16T00:05:56.267Z,1.75
2023-03-16T00:08:24.335Z,1.70
2023-03-16T00:10:54.465Z,1.57
2023-03-16T00:13:24.666Z,1.52
2023-03-16T00:15:54.601Z,0.80
2023-03-16T00:18:26.308Z,1.05
2023-03-16T00:20:57.247Z,1.67
2023-03-16T00:23:29.842Z,1.47
2023-03-16T00:26:00.239Z,1.32
2023-03-16T00:28:30.681Z,0.80
2023-03-16T00:30:59.523Z,1.10
2023-03-16T00:33:27.689Z,1.22
2023-03-16T00:36:00.274Z,1.77
2023-03-16T00:38:29.859Z,1.45
2023-03-16T00:40:57.445Z,1.37
2023-03-16T00:43:26.696Z,2.60
2023-03-16T00:46:03.205Z,0.90
2023-03-16T00:48:30.747Z,1.20
2023-03-16T00:50:59.393Z,2.47
2023-03-16T00:53:27.789Z,1.10
2023-03-16T00:55:58.860Z,0.78
2023-03-16T00:58:26.306Z,1.10
2023-03-16T01:00:55.483Z,1.17
2023-03-16T01:03:23.382Z,1.30
2023-03-16T01:05:51.115Z,1.07
2023-03-16T01:08:18.606Z,2.72
2023-03-16T01:10:46.623Z,0.80
2023-03-16T01:13:14.747Z,1.12
2023-03-16T01:15:43.205Z,1.40
2023-03-16T01:18:11.206Z,1.15
2023-03-16T01:20:38.621Z,1.05
2023-03-16T01:23:06.954Z,2.10
2023-03-16T01:25:34.486Z,3.72
2023-03-16T01:28:02.881Z,1.57
2023-03-16T01:30:30.738Z,1.52
2023-03-16T01:32:58.919Z,1.17
2023-03-16T01:35:26.716Z,1.60
2023-03-16T01:37:54.908Z,0.93
2023-03-16T01:40:38.016Z,1.57
2023-03-16T01:43:07.797Z,1.02
2023-03-16T01:46:07.521Z,1.90
2023-03-16T01:48:58.696Z,2.22
2023-03-16T01:51:37.841Z,1.50
2023-03-16T01:54:30.826Z,1.30
2023-03-16T01:57:21.348Z,1.15
2023-03-16T01:59:55.996Z,1.00
2023-03-16T02:02:26.862Z,1.20
2023-03-16T02:05:16.790Z,0.62
2023-03-16T02:07:48.438Z,0.88
2023-03-16T02:10:19.601Z,1.35
2023-03-16T02:12:47.829Z,1.85
2023-03-16T02:15:16.929Z,1.85
2023-03-16T02:17:45.941Z,1.47
2023-03-16T02:20:36.272Z,0.98
2023-03-16T02:23:06.624Z,1.20
2023-03-16T02:25:54.636Z,0.75
2023-03-16T02:28:45.072Z,0.80
2023-03-16T02:31:13.191Z,0.80
2023-03-16T02:33:42.078Z,0.90
2023-03-16T02:36:10.534Z,0.88
2023-03-16T02:38:39.282Z,2.27
2023-03-16T02:41:11.313Z,1.80
2023-03-16T02:43:42.314Z,0.90
2023-03-16T02:46:12.320Z,0.88
2023-03-16T02:49:00.633Z,2.12
2023-03-16T02:51:28.414Z,0.93
2023-03-16T02:53:56.606Z,1.15
2023-03-16T02:56:24.742Z,0.93
2023-03-16T02:58:52.541Z,1.70
2023-03-16T03:01:20.969Z,1.25
2023-03-16T03:03:49.876Z,0.53
2023-03-16T03:06:17.440Z,1.82
2023-03-16T03:08:45.757Z,1.98
2023-03-16T03:14:00.037Z,0.93
2023-03-16T03:16:28.514Z,1.30
2023-03-16T03:18:56.780Z,1.25
2023-03-16T03:21:32.552Z,1.70
2023-03-16T03:24:02.306Z,1.00
2023-03-16T03:26:29.908Z,0.93
2023-03-16T03:28:59.588Z,0.90
2023-03-16T03:31:27.432Z,1.62
2023-03-16T03:33:54.836Z,1.07
2023-03-16T03:36:23.319Z,1.12
2023-03-16T03:38:51.255Z,2.02
2023-03-16T03:41:20.182Z,1.60
2023-03-16T03:43:48.516Z,1.40
2023-03-16T03:46:17.222Z,1.45
2023-03-16T03:48:44.864Z,1.62
2023-03-16T03:51:12.767Z,1.47
2023-03-16T03:54:07.887Z,1.35
2023-03-16T03:56:52.638Z,2.10
2023-03-16T03:59:20.364Z,1.25
2023-03-16T04:02:02.079Z,3.15
2023-03-16T04:04:32.973Z,1.10
2023-03-16T04:07:02.223Z,1.50
2023-03-16T04:09:32.284Z,1.92
2023-03-16T04:12:03.790Z,1.37
2023-03-16T04:14:31.845Z,1.37
2023-03-16T04:17:00.772Z,2.42
2023-03-16T04:19:28.766Z,4.08
2023-03-16T04:21:57.220Z,2.25
2023-03-16T04:24:24.847Z,0.90
2023-03-16T04:26:54.687Z,1.40
2023-03-16T04:29:23.134Z,1.20
2023-03-16T04:31:51.410Z,2.72
2023-03-16T04:34:19.285Z,1.55
2023-03-16T04:36:46.945Z,1.27
2023-03-16T04:39:14.801Z,2.45
2023-03-16T04:41:43.336Z,1.80
2023-03-16T04:44:13.760Z,1.60
2023-03-16T04:46:42.294Z,1.32
2023-03-16T04:49:11.268Z,2.15
2023-03-16T04:51:40.919Z,1.07
2023-03-16T04:54:10.121Z,1.30
2023-03-16T04:56:41.486Z,3.50
2023-03-16T04:59:11.336Z,2.58
2023-03-16T05:01:44.052Z,1.60
2023-03-16T05:04:18.944Z,1.57
2023-03-16T05:06:42.176Z,3.17
2023-03-16T05:09:09.992Z,3.47
2023-03-16T05:11:39.535Z,2.25
2023-03-16T05:14:09.010Z,2.10
2023-03-16T05:16:38.670Z,1.22
2023-03-16T05:19:06.170Z,3.55
2023-03-16T05:21:34.496Z,1.90
2023-03-16T05:24:06.233Z,1.50
2023-03-16T05:26:34.177Z,0.82
2023-03-16T05:29:06.055Z,1.42
2023-03-16T05:31:33.762Z,2.20
2023-03-16T05:34:03.228Z,4.22
2023-03-16T05:36:30.765Z,3.83
2023-03-16T05:39:00.733Z,2.17
2023-03-16T05:41:30.416Z,2.02
2023-03-16T05:43:59.860Z,6.40
2023-03-16T05:46:29.443Z,2.15
2023-03-16T05:48:57.723Z,4.78
2023-03-16T05:51:29.206Z,2.70
2023-03-16T05:53:57.673Z,8.15
2023-03-16T05:56:39.426Z,2.08
2023-03-16T05:59:13.133Z,3.80
2023-03-16T06:01:41.057Z,3.67
2023-03-16T06:04:12.282Z,3.22
2023-03-16T06:06:41.248Z,2.22
2023-03-16T06:09:13.655Z,3.00
2023-03-16T06:11:46.281Z,2.77
2023-03-16T06:14:33.410Z,2.15
2023-03-16T06:17:01.040Z,2.52
2023-03-16T06:19:29.139Z,2.65
2023-03-16T06:21:59.415Z,2.50
2023-03-16T06:24:28.279Z,2.17
2023-03-16T06:26:56.010Z,1.75
2023-03-16T06:29:29.350Z,4.17
2023-03-16T06:31:57.394Z,5.05
2023-03-16T06:34:25.621Z,4.92
2023-03-16T06:36:54.860Z,8.20
2023-03-16T06:39:22.806Z,13.70
2023-03-16T06:41:52.310Z,6.45
2023-03-16T06:44:22.580Z,4.05
2023-03-16T06:46:55.205Z,4.80
2023-03-16T06:49:26.030Z,1.75
2023-03-16T06:51:53.721Z,2.95
2023-03-16T06:54:22.434Z,2.58
2023-03-16T06:56:50.323Z,3.92
2023-03-16T06:59:18.080Z,2.80
2023-03-16T07:01:45.703Z,6.90
2023-03-16T07:04:13.540Z,3.25
2023-03-16T07:06:41.725Z,2.60
2023-03-16T07:09:12.768Z,2.95
2023-03-16T07:11:41.056Z,5.50
2023-03-16T07:14:08.634Z,2.62
2023-03-16T07:16:36.998Z,5.33
2023-03-16T07:19:06.332Z,4.72
2023-03-16T07:21:35.523Z,6.72
2023-03-16T07:24:03.278Z,6.55
2023-03-16T07:26:33.358Z,5.08
2023-03-16T07:29:00.984Z,2.87
2023-03-16T07:31:30.050Z,16.35
2023-03-16T07:33:59.337Z,13.32
2023-03-16T07:36:29.031Z,16.20
2023-03-16T07:38:59.042Z,17.25
2023-03-16T07:41:27.585Z,7.75
2023-03-16T07:43:59.511Z,4.10
2023-03-16T07:46:27.278Z,4.53
2023-03-16T07:48:54.911Z,7.72
2023-03-16T07:51:22.941Z,4.37
2023-03-16T07:53:50.750Z,3.47
2023-03-16T07:56:23.062Z,8.03
2023-03-16T07:58:52.627Z,4.90
2023-03-16T08:01:20.652Z,9.63
2023-03-16T08:03:49.492Z,3.05
2023-03-16T08:06:17.385Z,2.92
2023-03-16T08:08:45.032Z,2.25
2023-03-16T08:11:15.589Z,2.27
2023-03-16T08:13:45.199Z,0.95
2023-03-16T08:16:13.925Z,2.12
2023-03-16T08:18:43.715Z,2.60
2023-03-16T08:21:11.657Z,2.62
2023-03-16T08:23:40.004Z,2.95
2023-03-16T08:26:10.224Z,2.17
2023-03-16T08:28:38.272Z,2.58
2023-03-16T08:31:09.096Z,2.75
2023-03-16T08:33:39.074Z,3.15
2023-03-16T08:36:09.302Z,1.80
2023-03-16T08:38:36.851Z,2.27
2023-03-16T08:41:07.206Z,1.22
2023-03-16T08:43:37.918Z,1.72
2023-03-16T08:46:05.968Z,1.52
2023-03-16T08:48:35.356Z,3.02
2023-03-16T08:51:04.574Z,5.42
2023-03-16T08:53:33.244Z,1.62
2023-03-16T08:56:06.783Z,2.47
2023-03-16T08:58:36.727Z,2.95
2023-03-16T09:01:06.212Z,2.52
2023-03-16T09:03:35.448Z,2.40
2023-03-16T09:06:06.024Z,3.52
2023-03-16T09:08:33.974Z,1.72
2023-03-16T09:11:04.212Z,3.92
2023-03-16T09:13:33.183Z,1.37
2023-03-16T09:16:01.649Z,1.95
2023-03-16T09:18:29.621Z,3.62
2023-03-16T09:21:01.689Z,1.87
2023-03-16T09:23:31.318Z,1.47
2023-03-16T09:26:00.905Z,2.40
2023-03-16T09:28:31.541Z,7.28
2023-03-16T09:31:00.079Z,2.58
2023-03-16T09:33:32.237Z,2.65
2023-03-16T09:36:01.332Z,3.52
2023-03-16T09:38:29.667Z,0.95
2023-03-16T09:41:03.334Z,0.90
2023-03-16T09:43:46.552Z,1.30
2023-03-16T09:46:27.461Z,8.45
2023-03-16T09:48:57.730Z,1.62
2023-03-16T09:52:03.483Z,5.03
2023-03-16T09:57:29.114Z,2.15
2023-03-16T10:00:03.289Z,1.67
2023-03-16T10:02:42.110Z,3.40
2023-03-16T10:05:13.441Z,2.80
2023-03-16T10:07:53.658Z,3.75
2023-03-16T10:10:41.743Z,2.47
2023-03-16T10:13:25.434Z,3.72
2023-03-16T10:15:54.361Z,1.98
2023-03-16T10:18:25.895Z,2.50
2023-03-16T10:20:55.397Z,3.52
2023-03-16T10:23:25.936Z,2.27
2023-03-16T10:25:55.789Z,3.25
2023-03-16T10:28:26.886Z,4.53
2023-03-16T10:31:00.546Z,3.25
2023-03-16T10:33:30.547Z,2.10
2023-03-16T10:36:06.070Z,5.30
2023-03-16T10:38:51.366Z,4.00
2023-03-16T10:41:26.314Z,2.12
2023-03-16T10:44:08.998Z,4.80
2023-03-16T10:46:40.640Z,5.62
2023-03-16T10:49:12.596Z,2.80
2023-03-16T10:51:40.232Z,5.35
2023-03-16T10:54:32.195Z,3.70
2023-03-16T10:57:02.411Z,3.27
2023-03-16T10:59:35.377Z,3.45
2023-03-16T11:02:19.887Z,3.00
2023-03-16T11:04:48.336Z,4.67
2023-03-16T11:07:29.911Z,3.90
2023-03-16T11:09:59.103Z,4.05
2023-03-16T11:15:25.588Z,3.37
2023-03-16T11:17:53.345Z,3.45
2023-03-16T11:20:29.305Z,4.28
2023-03-16T11:22:58.957Z,3.65
2023-03-16T11:25:42.740Z,14.40
2023-03-16T11:28:17.214Z,3.40
2023-03-16T11:31:03.786Z,3.75
2023-03-16T11:33:34.098Z,4.83
2023-03-16T11:36:11.606Z,2.65
2023-03-16T11:38:59.938Z,1.67
2023-03-16T11:41:43.843Z,1.40
2023-03-16T11:44:36.350Z,2.37
2023-03-16T11:47:08.191Z,4.45
2023-03-16T11:50:03.655Z,5.05
2023-03-16T11:52:52.962Z,5.05
2023-03-16T11:55:36.684Z,3.22
2023-03-16T11:58:26.088Z,7.50
2023-03-16T12:01:09.114Z,2.95
2023-03-16T12:03:53.787Z,2.83
2023-03-16T12:06:43.869Z,2.10
2023-03-16T12:09:28.016Z,3.35
2023-03-16T12:12:02.267Z,2.75
2023-03-16T12:14:48.165Z,5.43
2023-03-16T12:17:22.780Z,2.92
2023-03-16T12:19:54.629Z,3.40
2023-03-16T12:22:44.837Z,3.35
2023-03-16T12:25:16.258Z,2.90
2023-03-16T12:27:49.062Z,2.72
2023-03-16T12:30:25.935Z,3.75
2023-03-16T12:33:13.423Z,2.90
2023-03-16T12:36:07.243Z,4.62
2023-03-16T12:38:41.721Z,3.47
2023-03-16T12:41:22.519Z,7.37
2023-03-16T12:44:09.586Z,7.67
2023-03-16T12:46:41.439Z,6.35
2023-03-16T12:49:10.609Z,6.45
2023-03-16T12:51:41.785Z,7.05
2023-03-16T12:54:24.099Z,4.87
2023-03-16T12:56:54.322Z,4.35
2023-03-16T12:59:24.801Z,4.00
2023-03-16T13:01:59.886Z,3.45
2023-03-16T13:04:37.677Z,3.10
2023-03-16T13:07:08.367Z,4.70
2023-03-16T13:09:39.334Z,4.17
2023-03-16T13:12:07.442Z,4.35
2023-03-16T13:14:42.034Z,6.05
2023-03-16T13:17:19.860Z,10.58
2023-03-16T13:20:29.487Z,3.25
2023-03-16T13:22:53.124Z,7.47
2023-03-16T13:25:35.657Z,3.08
2023-03-16T13:28:06.848Z,2.85
2023-03-16T13:30:35.913Z,3.72
2023-03-16T13:33:07.547Z,2.77
2023-03-16T13:35:39.329Z,2.67
2023-03-16T13:38:09.589Z,2.83
2023-03-16T13:40:41.488Z,4.08
2023-03-16T13:43:16.363Z,4.62
2023-03-16T13:48:19.328Z,4.58
2023-03-16T13:53:26.462Z,3.10
2023-03-16T13:55:58.686Z,2.75
2023-03-16T13:58:35.276Z,3.30
2023-03-16T14:01:04.454Z,4.10
2023-03-16T14:03:42.025Z,3.45
2023-03-16T14:06:13.910Z,5.15
2023-03-16T14:08:45.115Z,10.23
2023-03-16T14:11:13.124Z,4.08
2023-03-16T14:13:41.192Z,5.58
2023-03-16T14:16:15.834Z,2.70
2023-03-16T14:18:47.830Z,4.25
2023-03-16T14:21:19.510Z,3.83
2023-03-16T14:23:51.353Z,5.35
2023-03-16T14:26:23.838Z,4.42
2023-03-16T14:29:11.425Z,3.90
2023-03-16T14:31:42.548Z,3.45
2023-03-16T14:34:38.892Z,3.30
2023-03-16T14:37:12.564Z,3.08
2023-03-16T14:39:43.020Z,12.53
2023-03-16T14:42:17.701Z,6.20
2023-03-16T14:44:46.084Z,3.25
2023-03-16T14:47:26.749Z,3.42
2023-03-16T14:49:56.915Z,4.33
2023-03-16T14:52:28.047Z,4.25
2023-03-16T14:54:55.733Z,6.17
2023-03-16T14:57:23.231Z,9.00
2023-03-16T14:59:54.073Z,5.35
2023-03-16T15:02:30.087Z,4.78
2023-03-16T15:04:59.471Z,22.35
2023-03-16T15:07:30.674Z,3.02
2023-03-16T15:10:13.536Z,4.55
2023-03-16T15:12:41.664Z,5.62
2023-03-16T15:15:23.015Z,2.98
2023-03-16T15:17:52.791Z,4.58
2023-03-16T15:20:27.163Z,3.17
2023-03-16T15:22:54.945Z,5.17
2023-03-16T15:25:26.640Z,3.90
2023-03-16T15:27:54.774Z,3.20
2023-03-16T15:30:31.122Z,3.27
2023-03-16T15:32:59.536Z,5.10
2023-03-16T15:35:27.830Z,3.50
2023-03-16T15:37:56.786Z,3.33
2023-03-16T15:40:30.187Z,4.87
2023-03-16T15:42:57.876Z,3.15
2023-03-16T15:45:25.950Z,3.62
2023-03-16T15:47:54.309Z,3.70
2023-03-16T15:50:25.364Z,2.87
2023-03-16T15:52:59.377Z,6.03
2023-03-16T15:55:35.035Z,5.65
2023-03-16T15:58:04.117Z,4.75
2023-03-16T16:00:39.857Z,4.00
2023-03-16T16:03:07.721Z,2.98
2023-03-16T16:05:36.517Z,4.60
2023-03-16T16:08:04.362Z,3.55
2023-03-16T16:10:32.617Z,3.72
2023-03-16T16:13:01.822Z,3.70
2023-03-16T16:15:37.294Z,8.85
2023-03-16T16:18:20.913Z,5.53
2023-03-16T16:20:42.476Z,4.85
2023-03-16T16:23:10.719Z,5.40
2023-03-16T16:25:42.948Z,3.72
2023-03-16T16:28:18.014Z,4.85
2023-03-16T16:30:46.596Z,6.83
2023-03-16T16:33:33.639Z,3.95
2023-03-16T16:36:03.603Z,4.92
2023-03-16T16:38:32.963Z,4.75
2023-03-16T16:41:03.169Z,8.10
2023-03-16T16:43:39.159Z,6.75
2023-03-16T16:46:10.090Z,4.75
2023-03-16T16:48:42.174Z,5.28
2023-03-16T16:51:20.042Z,6.12
2023-03-16T16:53:48.840Z,8.75
2023-03-16T16:56:22.530Z,4.05
2023-03-16T16:58:57.190Z,8.13
2023-03-16T17:01:30.667Z,4.40
2023-03-16T17:03:58.438Z,7.83
2023-03-16T17:06:26.813Z,6.28
2023-03-16T17:08:55.804Z,6.83
2023-03-16T17:11:31.854Z,6.58
2023-03-16T17:14:03.126Z,6.58
2023-03-16T17:16:33.005Z,6.45
2023-03-16T17:19:00.805Z,11.05
2023-03-16T17:21:30.230Z,6.83
2023-03-16T17:23:58.774Z,4.92
2023-03-16T17:26:33.151Z,4.58
2023-03-16T17:29:18.004Z,3.45
2023-03-16T17:31:45.997Z,8.78
2023-03-16T17:34:17.853Z,8.98
2023-03-16T17:36:46.523Z,11.22
2023-03-16T17:39:23.889Z,10.63
2023-03-16T17:42:00.900Z,8.58
2023-03-16T17:44:34.491Z,8.58
2023-03-16T17:47:02.365Z,5.62
2023-03-16T17:49:32.187Z,7.35
2023-03-16T17:52:00.894Z,9.28
2023-03-16T17:54:28.663Z,12.70
2023-03-16T17:56:56.415Z,8.73
2023-03-16T17:59:24.333Z,9.05
2023-03-16T18:01:53.029Z,7.33
2023-03-16T18:04:23.743Z,6.85
2023-03-16T18:06:51.769Z,7.67
2023-03-16T18:09:22.498Z,5.40
2023-03-16T18:11:51.805Z,8.33
2023-03-16T18:14:39.679Z,12.40
2023-03-16T18:17:20.339Z,8.15
2023-03-16T18:19:49.134Z,14.33
2023-03-16T18:22:22.312Z,7.40
2023-03-16T18:24:52.325Z,9.53
2023-03-16T18:27:20.568Z,13.35
2023-03-16T18:29:50.011Z,13.15
2023-03-16T18:32:21.824Z,14.03
2023-03-16T18:34:53.583Z,9.73
2023-03-16T18:37:28.442Z,9.68
2023-03-16T18:42:27.601Z,11.38
2023-03-16T18:44:55.127Z,8.90
2023-03-16T18:47:26.810Z,9.15
2023-03-16T18:49:54.570Z,8.75
2023-03-16T18:52:25.153Z,12.33
2023-03-16T18:54:53.472Z,14.03
2023-03-16T18:57:25.157Z,7.72
2023-03-16T19:00:05.711Z,9.23
2023-03-16T19:02:39.488Z,7.22
2023-03-16T19:05:16.430Z,8.65
2023-03-16T19:07:47.904Z,6.87
2023-03-16T19:10:22.569Z,6.87
2023-03-16T19:12:51.404Z,6.55
2023-03-16T19:15:28.912Z,9.93
2023-03-16T19:17:58.349Z,6.40
2023-03-16T19:20:29.553Z,8.63
2023-03-16T19:23:09.577Z,9.23
2023-03-16T19:25:42.841Z,9.80
2023-03-16T19:28:14.308Z,14.05
2023-03-16T19:30:42.847Z,7.35
2023-03-16T19:33:22.810Z,5.67
2023-03-16T19:35:52.477Z,5.08
2023-03-16T19:38:24.849Z,8.40
2023-03-16T19:40:56.378Z,5.50
2023-03-16T19:43:24.861Z,8.43
2023-03-16T19:45:53.381Z,7.70
2023-03-16T19:48:24.992Z,7.00
2023-03-16T19:50:52.712Z,6.67
2023-03-16T19:53:28.364Z,5.58
2023-03-16T19:55:56.289Z,7.78
2023-03-16T19:58:30.635Z,8.55
2023-03-16T20:01:00.017Z,6.65
2023-03-16T20:03:29.029Z,8.28
2023-03-16T20:05:56.736Z,4.90
2023-03-16T20:08:27.106Z,7.22
2023-03-16T20:10:59.110Z,7.78
2023-03-16T20:13:26.737Z,6.92
2023-03-16T20:15:54.673Z,5.60
2023-03-16T20:18:22.476Z,6.22
2023-03-16T20:20:50.466Z,7.00
2023-03-16T20:23:26.743Z,5.97
2023-03-16T20:25:56.600Z,6.85
2023-03-16T20:28:27.826Z,6.60
2023-03-16T20:30:55.392Z,7.37
2023-03-16T20:33:25.544Z,7.17
2023-03-16T20:35:55.657Z,9.08
2023-03-16T20:38:23.722Z,6.12
2023-03-16T20:40:54.290Z,7.53
2023-03-16T20:43:29.964Z,5.25
2023-03-16T20:46:01.225Z,7.50
2023-03-16T20:48:29.870Z,7.35
2023-03-16T20:51:17.850Z,6.10
2023-03-16T20:53:47.301Z,6.70
2023-03-16T20:56:20.882Z,6.37
2023-03-16T20:58:50.825Z,5.55
2023-03-16T21:01:21.675Z,5.15
2023-03-16T21:03:56.339Z,8.45
2023-03-16T21:06:27.370Z,7.30
2023-03-16T21:08:57.628Z,7.97
2023-03-16T21:11:32.332Z,6.53
2023-03-16T21:14:00.212Z,5.22
2023-03-16T21:16:29.775Z,6.83
2023-03-16T21:18:57.843Z,9.23
2023-03-16T21:21:25.654Z,5.67
2023-03-16T21:23:54.070Z,7.03
2023-03-16T21:26:24.412Z,6.80
2023-03-16T21:28:56.939Z,5.28
2023-03-16T21:31:25.899Z,7.30
2023-03-16T21:33:55.181Z,7.58
2023-03-16T21:36:26.585Z,10.38
2023-03-16T21:38:55.818Z,6.15
2023-03-16T21:41:25.093Z,7.45
2023-03-16T21:43:54.699Z,6.75
2023-03-16T21:46:24.626Z,8.40
2023-03-16T21:48:55.263Z,5.40
2023-03-16T21:51:26.009Z,5.65
2023-03-16T21:53:54.479Z,5.85
2023-03-16T21:56:23.896Z,5.37
2023-03-16T21:58:53.325Z,6.75
2023-03-16T22:01:24.929Z,9.63
2023-03-16T22:03:56.148Z,6.75
2023-03-16T22:06:25.920Z,10.50
2023-03-16T22:08:54.586Z,6.22
2023-03-16T22:11:24.694Z,4.45
2023-03-16T22:13:53.092Z,6.50
2023-03-16T22:16:23.396Z,8.55
2023-03-16T22:18:56.385Z,8.05
2023-03-16T22:21:42.356Z,11.30
2023-03-16T22:24:23.866Z,6.72
2023-03-16T22:26:52.315Z,9.03
2023-03-16T22:29:29.564Z,9.50
2023-03-16T22:32:04.695Z,6.70
2023-03-16T22:34:36.238Z,7.40
2023-03-16T22:37:13.785Z,6.25
2023-03-16T22:39:43.946Z,7.37
2023-03-16T22:42:30.727Z,6.95
2023-03-16T22:44:58.262Z,5.60
2023-03-16T22:47:31.510Z,7.03
2023-03-16T22:52:31.139Z,4.95
2023-03-16T22:55:01.609Z,4.85
2023-03-16T22:57:30.148Z,4.85
2023-03-16T22:59:59.073Z,4.05
2023-03-16T23:02:30.758Z,3.30
2023-03-16T23:04:59.556Z,4.33
2023-03-16T23:07:27.716Z,3.87
2023-03-16T23:09:55.927Z,5.67
2023-03-16T23:12:23.224Z,4.12
2023-03-16T23:14:50.660Z,3.80
2023-03-16T23:17:20.372Z,4.75
2023-03-16T23:19:49.269Z,4.30
2023-03-16T23:22:17.375Z,4.60
2023-03-16T23:24:45.066Z,6.55
2023-03-16T23:27:21.791Z,6.53
2023-03-16T23:29:52.658Z,6.65
2023-03-16T23:32:20.309Z,5.62
2023-03-16T23:34:48.221Z,6.60
2023-03-16T23:37:16.326Z,6.58
2023-03-16T23:39:43.897Z,4.17
2023-03-16T23:42:11.758Z,5.00
2023-03-16T23:44:39.835Z,5.33
2023-03-16T23:47:11.924Z,4.00
2023-03-16T23:49:42.682Z,5.47
2023-03-16T23:52:12.411Z,4.85
2023-03-16T23:54:40.573Z,5.60
2023-03-16T23:57:09.421Z,6.25
2023-03-16T23:59:36.894Z,4.55
